<?xml version="1.0" encoding="UTF-8" standalone="no" ?>
<gpx xmlns="http://www.topografix.com/GPX/1/1" xmlns:xsi="http://www.w3.org/2001/XMLSchema-instance" xsi:schemaLocation="http://www.topografix.com/GPX/1/1 http://www.topografix.com/GPX/1/1/gpx.xsd" version="1.1" creator="VisuGPX - https://www.visugpx.com">
  <metadata>
    <name>Dourdan-Auneau: sur le chemin du Duc de Guise</name>
    <desc><![CDATA[Sera complété ultérieurement avec quelques références historiques qui sont à vérifier]]></desc>
  </metadata>
  <trk>
    <name><![CDATA[Randonnée du 21/05/2022 à 21:18]]></name>
    <trkseg>
      <trkpt lat="48.52977" lon="2.01152">
        <ele>105</ele>
        <time>2022-05-15T09:21:43+02:00</time>
      </trkpt>
      <trkpt lat="48.52977" lon="2.01112">
        <ele>105</ele>
        <time>2022-05-15T09:26:34+02:00</time>
      </trkpt>
      <trkpt lat="48.52956" lon="2.01138">
        <ele>104</ele>
        <time>2022-05-15T09:29:28+02:00</time>
      </trkpt>
      <trkpt lat="48.5293" lon="2.01082">
        <ele>102</ele>
        <time>2022-05-15T09:30:16+02:00</time>
      </trkpt>
      <trkpt lat="48.52947" lon="2.01006">
        <ele>101</ele>
        <time>2022-05-15T09:31:13+02:00</time>
      </trkpt>
      <trkpt lat="48.52944" lon="2.00935">
        <ele>98</ele>
        <time>2022-05-15T09:32:06+02:00</time>
      </trkpt>
      <trkpt lat="48.52907" lon="2.00876">
        <ele>95</ele>
        <time>2022-05-15T09:32:56+02:00</time>
      </trkpt>
      <trkpt lat="48.5287" lon="2.0083">
        <ele>95</ele>
        <time>2022-05-15T09:35:02+02:00</time>
      </trkpt>
      <trkpt lat="48.52832" lon="2.00791">
        <ele>96</ele>
        <time>2022-05-15T09:35:46+02:00</time>
      </trkpt>
      <trkpt lat="48.52793" lon="2.00765">
        <ele>96</ele>
        <time>2022-05-15T09:36:34+02:00</time>
      </trkpt>
      <trkpt lat="48.52756" lon="2.00725">
        <ele>97</ele>
        <time>2022-05-15T09:37:17+02:00</time>
      </trkpt>
      <trkpt lat="48.52718" lon="2.00683">
        <ele>99</ele>
        <time>2022-05-15T09:38:03+02:00</time>
      </trkpt>
      <trkpt lat="48.52682" lon="2.00644">
        <ele>101</ele>
        <time>2022-05-15T09:38:46+02:00</time>
      </trkpt>
      <trkpt lat="48.52646" lon="2.00604">
        <ele>102</ele>
        <time>2022-05-15T09:39:30+02:00</time>
      </trkpt>
      <trkpt lat="48.5261" lon="2.00564">
        <ele>103</ele>
        <time>2022-05-15T09:40:13+02:00</time>
      </trkpt>
      <trkpt lat="48.52573" lon="2.00523">
        <ele>106</ele>
        <time>2022-05-15T09:40:55+02:00</time>
      </trkpt>
      <trkpt lat="48.52537" lon="2.00482">
        <ele>107</ele>
        <time>2022-05-15T09:41:37+02:00</time>
      </trkpt>
      <trkpt lat="48.52499" lon="2.00436">
        <ele>110</ele>
        <time>2022-05-15T09:42:22+02:00</time>
      </trkpt>
      <trkpt lat="48.52465" lon="2.00388">
        <ele>110</ele>
        <time>2022-05-15T09:43:02+02:00</time>
      </trkpt>
      <trkpt lat="48.5246" lon="2.0032">
        <ele>110</ele>
        <time>2022-05-15T09:43:40+02:00</time>
      </trkpt>
      <trkpt lat="48.52448" lon="2.00258">
        <ele>111</ele>
        <time>2022-05-15T09:44:21+02:00</time>
      </trkpt>
      <trkpt lat="48.52416" lon="2.0022">
        <ele>114</ele>
        <time>2022-05-15T09:45:00+02:00</time>
      </trkpt>
      <trkpt lat="48.52391" lon="2.00168">
        <ele>116</ele>
        <time>2022-05-15T09:45:40+02:00</time>
      </trkpt>
      <trkpt lat="48.52379" lon="2.00101">
        <ele>117</ele>
        <time>2022-05-15T09:46:22+02:00</time>
      </trkpt>
      <trkpt lat="48.5237" lon="2.00032">
        <ele>118</ele>
        <time>2022-05-15T09:47:04+02:00</time>
      </trkpt>
      <trkpt lat="48.52359" lon="1.99966">
        <ele>118</ele>
        <time>2022-05-15T09:47:44+02:00</time>
      </trkpt>
      <trkpt lat="48.52349" lon="1.99896">
        <ele>117</ele>
        <time>2022-05-15T09:48:21+02:00</time>
      </trkpt>
      <trkpt lat="48.5234" lon="1.99828">
        <ele>118</ele>
        <time>2022-05-15T09:49:13+02:00</time>
      </trkpt>
      <trkpt lat="48.52328" lon="1.99769">
        <ele>119</ele>
        <time>2022-05-15T09:49:52+02:00</time>
      </trkpt>
      <trkpt lat="48.52318" lon="1.99697">
        <ele>120</ele>
        <time>2022-05-15T09:50:35+02:00</time>
      </trkpt>
      <trkpt lat="48.52307" lon="1.99632">
        <ele>123</ele>
        <time>2022-05-15T09:51:22+02:00</time>
      </trkpt>
      <trkpt lat="48.52298" lon="1.99563">
        <ele>128</ele>
        <time>2022-05-15T09:52:06+02:00</time>
      </trkpt>
      <trkpt lat="48.52286" lon="1.99498">
        <ele>134</ele>
        <time>2022-05-15T09:52:50+02:00</time>
      </trkpt>
      <trkpt lat="48.52274" lon="1.99428">
        <ele>140</ele>
        <time>2022-05-15T09:53:35+02:00</time>
      </trkpt>
      <trkpt lat="48.52257" lon="1.99344">
        <ele>138</ele>
        <time>2022-05-15T09:54:24+02:00</time>
      </trkpt>
      <trkpt lat="48.52252" lon="1.99276">
        <ele>138</ele>
        <time>2022-05-15T09:55:05+02:00</time>
      </trkpt>
      <trkpt lat="48.52241" lon="1.99191">
        <ele>139</ele>
        <time>2022-05-15T09:55:48+02:00</time>
      </trkpt>
      <trkpt lat="48.52229" lon="1.99124">
        <ele>139</ele>
        <time>2022-05-15T09:56:32+02:00</time>
      </trkpt>
      <trkpt lat="48.52216" lon="1.99056">
        <ele>138</ele>
        <time>2022-05-15T09:57:16+02:00</time>
      </trkpt>
      <trkpt lat="48.52206" lon="1.9899">
        <ele>140</ele>
        <time>2022-05-15T09:58:02+02:00</time>
      </trkpt>
      <trkpt lat="48.522" lon="1.98931">
        <ele>143</ele>
        <time>2022-05-15T09:58:46+02:00</time>
      </trkpt>
      <trkpt lat="48.52185" lon="1.98864">
        <ele>148</ele>
        <time>2022-05-15T09:59:39+02:00</time>
      </trkpt>
      <trkpt lat="48.52175" lon="1.9879">
        <ele>154</ele>
        <time>2022-05-15T10:00:33+02:00</time>
      </trkpt>
      <trkpt lat="48.52163" lon="1.98721">
        <ele>158</ele>
        <time>2022-05-15T10:01:24+02:00</time>
      </trkpt>
      <trkpt lat="48.52154" lon="1.98644">
        <ele>159</ele>
        <time>2022-05-15T10:02:05+02:00</time>
      </trkpt>
      <trkpt lat="48.52145" lon="1.98584">
        <ele>158</ele>
        <time>2022-05-15T10:02:43+02:00</time>
      </trkpt>
      <trkpt lat="48.52132" lon="1.98499">
        <ele>157</ele>
        <time>2022-05-15T10:03:28+02:00</time>
      </trkpt>
      <trkpt lat="48.52123" lon="1.9843">
        <ele>157</ele>
        <time>2022-05-15T10:04:08+02:00</time>
      </trkpt>
      <trkpt lat="48.52112" lon="1.98363">
        <ele>156</ele>
        <time>2022-05-15T10:04:46+02:00</time>
      </trkpt>
      <trkpt lat="48.521" lon="1.98286">
        <ele>156</ele>
        <time>2022-05-15T10:05:25+02:00</time>
      </trkpt>
      <trkpt lat="48.52088" lon="1.98219">
        <ele>156</ele>
        <time>2022-05-15T10:06:02+02:00</time>
      </trkpt>
      <trkpt lat="48.52079" lon="1.98153">
        <ele>157</ele>
        <time>2022-05-15T10:06:40+02:00</time>
      </trkpt>
      <trkpt lat="48.52067" lon="1.98079">
        <ele>160</ele>
        <time>2022-05-15T10:07:20+02:00</time>
      </trkpt>
      <trkpt lat="48.52051" lon="1.98008">
        <ele>163</ele>
        <time>2022-05-15T10:08:02+02:00</time>
      </trkpt>
      <trkpt lat="48.52038" lon="1.9793">
        <ele>164</ele>
        <time>2022-05-15T10:08:45+02:00</time>
      </trkpt>
      <trkpt lat="48.52027" lon="1.9785">
        <ele>164</ele>
        <time>2022-05-15T10:09:29+02:00</time>
      </trkpt>
      <trkpt lat="48.52017" lon="1.9777">
        <ele>163</ele>
        <time>2022-05-15T10:10:07+02:00</time>
      </trkpt>
      <trkpt lat="48.52005" lon="1.97713">
        <ele>162</ele>
        <time>2022-05-15T10:10:44+02:00</time>
      </trkpt>
      <trkpt lat="48.51995" lon="1.9764">
        <ele>162</ele>
        <time>2022-05-15T10:11:27+02:00</time>
      </trkpt>
      <trkpt lat="48.51976" lon="1.97565">
        <ele>160</ele>
        <time>2022-05-15T10:12:08+02:00</time>
      </trkpt>
      <trkpt lat="48.51973" lon="1.97489">
        <ele>160</ele>
        <time>2022-05-15T10:12:47+02:00</time>
      </trkpt>
      <trkpt lat="48.51966" lon="1.97415">
        <ele>159</ele>
        <time>2022-05-15T10:13:27+02:00</time>
      </trkpt>
      <trkpt lat="48.51959" lon="1.97337">
        <ele>160</ele>
        <time>2022-05-15T10:14:04+02:00</time>
      </trkpt>
      <trkpt lat="48.51937" lon="1.97275">
        <ele>159</ele>
        <time>2022-05-15T10:14:42+02:00</time>
      </trkpt>
      <trkpt lat="48.51925" lon="1.97208">
        <ele>159</ele>
        <time>2022-05-15T10:15:29+02:00</time>
      </trkpt>
      <trkpt lat="48.51925" lon="1.97114">
        <ele>161</ele>
        <time>2022-05-15T10:16:13+02:00</time>
      </trkpt>
      <trkpt lat="48.51956" lon="1.97087">
        <ele>162</ele>
        <time>2022-05-15T10:17:36+02:00</time>
      </trkpt>
      <trkpt lat="48.51907" lon="1.97074">
        <ele>162</ele>
        <time>2022-05-15T10:23:14+02:00</time>
      </trkpt>
      <trkpt lat="48.51895" lon="1.97001">
        <ele>165</ele>
        <time>2022-05-15T10:23:55+02:00</time>
      </trkpt>
      <trkpt lat="48.51878" lon="1.96926">
        <ele>165</ele>
        <time>2022-05-15T10:24:39+02:00</time>
      </trkpt>
      <trkpt lat="48.51874" lon="1.96844">
        <ele>166</ele>
        <time>2022-05-15T10:25:17+02:00</time>
      </trkpt>
      <trkpt lat="48.51865" lon="1.9678">
        <ele>167</ele>
        <time>2022-05-15T10:25:52+02:00</time>
      </trkpt>
      <trkpt lat="48.51851" lon="1.96713">
        <ele>168</ele>
        <time>2022-05-15T10:26:28+02:00</time>
      </trkpt>
      <trkpt lat="48.51845" lon="1.96644">
        <ele>168</ele>
        <time>2022-05-15T10:27:05+02:00</time>
      </trkpt>
      <trkpt lat="48.51838" lon="1.96574">
        <ele>167</ele>
        <time>2022-05-15T10:27:43+02:00</time>
      </trkpt>
      <trkpt lat="48.51822" lon="1.96502">
        <ele>167</ele>
        <time>2022-05-15T10:28:21+02:00</time>
      </trkpt>
      <trkpt lat="48.51813" lon="1.96423">
        <ele>165</ele>
        <time>2022-05-15T10:29:00+02:00</time>
      </trkpt>
      <trkpt lat="48.51799" lon="1.96351">
        <ele>163</ele>
        <time>2022-05-15T10:29:37+02:00</time>
      </trkpt>
      <trkpt lat="48.51787" lon="1.96279">
        <ele>162</ele>
        <time>2022-05-15T10:30:17+02:00</time>
      </trkpt>
      <trkpt lat="48.51788" lon="1.96214">
        <ele>161</ele>
        <time>2022-05-15T10:32:42+02:00</time>
      </trkpt>
      <trkpt lat="48.5176" lon="1.96114">
        <ele>161</ele>
        <time>2022-05-15T10:33:50+02:00</time>
      </trkpt>
      <trkpt lat="48.51728" lon="1.96002">
        <ele>162</ele>
        <time>2022-05-15T10:34:54+02:00</time>
      </trkpt>
      <trkpt lat="48.51704" lon="1.95905">
        <ele>160</ele>
        <time>2022-05-15T10:35:54+02:00</time>
      </trkpt>
      <trkpt lat="48.51687" lon="1.95809">
        <ele>161</ele>
        <time>2022-05-15T10:36:45+02:00</time>
      </trkpt>
      <trkpt lat="48.51652" lon="1.95725">
        <ele>159</ele>
        <time>2022-05-15T10:37:46+02:00</time>
      </trkpt>
      <trkpt lat="48.51629" lon="1.95616">
        <ele>159</ele>
        <time>2022-05-15T10:38:49+02:00</time>
      </trkpt>
      <trkpt lat="48.51603" lon="1.95523">
        <ele>160</ele>
        <time>2022-05-15T10:39:49+02:00</time>
      </trkpt>
      <trkpt lat="48.51573" lon="1.9544">
        <ele>157</ele>
        <time>2022-05-15T10:41:22+02:00</time>
      </trkpt>
      <trkpt lat="48.51561" lon="1.95372">
        <ele>155</ele>
        <time>2022-05-15T10:42:13+02:00</time>
      </trkpt>
      <trkpt lat="48.51524" lon="1.95306">
        <ele>154</ele>
        <time>2022-05-15T10:42:53+02:00</time>
      </trkpt>
      <trkpt lat="48.5149" lon="1.95258">
        <ele>155</ele>
        <time>2022-05-15T10:43:31+02:00</time>
      </trkpt>
      <trkpt lat="48.51455" lon="1.95213">
        <ele>155</ele>
        <time>2022-05-15T10:44:08+02:00</time>
      </trkpt>
      <trkpt lat="48.5142" lon="1.95169">
        <ele>154</ele>
        <time>2022-05-15T10:44:43+02:00</time>
      </trkpt>
      <trkpt lat="48.51388" lon="1.95133">
        <ele>154</ele>
        <time>2022-05-15T10:45:20+02:00</time>
      </trkpt>
      <trkpt lat="48.5135" lon="1.95097">
        <ele>155</ele>
        <time>2022-05-15T10:45:57+02:00</time>
      </trkpt>
      <trkpt lat="48.51315" lon="1.95057">
        <ele>155</ele>
        <time>2022-05-15T10:46:34+02:00</time>
      </trkpt>
      <trkpt lat="48.51279" lon="1.95019">
        <ele>155</ele>
        <time>2022-05-15T10:47:11+02:00</time>
      </trkpt>
      <trkpt lat="48.5124" lon="1.94983">
        <ele>154</ele>
        <time>2022-05-15T10:47:47+02:00</time>
      </trkpt>
      <trkpt lat="48.51209" lon="1.9494">
        <ele>153</ele>
        <time>2022-05-15T10:48:22+02:00</time>
      </trkpt>
      <trkpt lat="48.51184" lon="1.94878">
        <ele>153</ele>
        <time>2022-05-15T10:49:00+02:00</time>
      </trkpt>
      <trkpt lat="48.51152" lon="1.94827">
        <ele>153</ele>
        <time>2022-05-15T10:49:38+02:00</time>
      </trkpt>
      <trkpt lat="48.51127" lon="1.94769">
        <ele>154</ele>
        <time>2022-05-15T10:50:17+02:00</time>
      </trkpt>
      <trkpt lat="48.51092" lon="1.94721">
        <ele>155</ele>
        <time>2022-05-15T10:50:56+02:00</time>
      </trkpt>
      <trkpt lat="48.5106" lon="1.94675">
        <ele>154</ele>
        <time>2022-05-15T10:51:33+02:00</time>
      </trkpt>
      <trkpt lat="48.51027" lon="1.94625">
        <ele>154</ele>
        <time>2022-05-15T10:52:11+02:00</time>
      </trkpt>
      <trkpt lat="48.50993" lon="1.9457">
        <ele>154</ele>
        <time>2022-05-15T10:52:51+02:00</time>
      </trkpt>
      <trkpt lat="48.50963" lon="1.94517">
        <ele>155</ele>
        <time>2022-05-15T10:53:41+02:00</time>
      </trkpt>
      <trkpt lat="48.50933" lon="1.94464">
        <ele>155</ele>
        <time>2022-05-15T10:54:21+02:00</time>
      </trkpt>
      <trkpt lat="48.50904" lon="1.94409">
        <ele>156</ele>
        <time>2022-05-15T10:55:00+02:00</time>
      </trkpt>
      <trkpt lat="48.50875" lon="1.94358">
        <ele>156</ele>
        <time>2022-05-15T10:55:38+02:00</time>
      </trkpt>
      <trkpt lat="48.50843" lon="1.94308">
        <ele>155</ele>
        <time>2022-05-15T10:56:17+02:00</time>
      </trkpt>
      <trkpt lat="48.50809" lon="1.9426">
        <ele>155</ele>
        <time>2022-05-15T10:56:55+02:00</time>
      </trkpt>
      <trkpt lat="48.50776" lon="1.94211">
        <ele>155</ele>
        <time>2022-05-15T10:57:36+02:00</time>
      </trkpt>
      <trkpt lat="48.50743" lon="1.94163">
        <ele>155</ele>
        <time>2022-05-15T10:58:14+02:00</time>
      </trkpt>
      <trkpt lat="48.50713" lon="1.94116">
        <ele>156</ele>
        <time>2022-05-15T10:58:50+02:00</time>
      </trkpt>
      <trkpt lat="48.50681" lon="1.9407">
        <ele>155</ele>
        <time>2022-05-15T10:59:27+02:00</time>
      </trkpt>
      <trkpt lat="48.50663" lon="1.94043">
        <ele>155</ele>
        <time>2022-05-15T11:03:14+02:00</time>
      </trkpt>
      <trkpt lat="48.50643" lon="1.94038">
        <ele>155</ele>
        <time>2022-05-15T11:09:56+02:00</time>
      </trkpt>
      <trkpt lat="48.50602" lon="1.94006">
        <ele>155</ele>
        <time>2022-05-15T11:10:34+02:00</time>
      </trkpt>
      <trkpt lat="48.50561" lon="1.93977">
        <ele>155</ele>
        <time>2022-05-15T11:11:11+02:00</time>
      </trkpt>
      <trkpt lat="48.50517" lon="1.93957">
        <ele>155</ele>
        <time>2022-05-15T11:11:48+02:00</time>
      </trkpt>
      <trkpt lat="48.50475" lon="1.93933">
        <ele>156</ele>
        <time>2022-05-15T11:12:24+02:00</time>
      </trkpt>
      <trkpt lat="48.50433" lon="1.93909">
        <ele>155</ele>
        <time>2022-05-15T11:13:01+02:00</time>
      </trkpt>
      <trkpt lat="48.50392" lon="1.93882">
        <ele>156</ele>
        <time>2022-05-15T11:13:36+02:00</time>
      </trkpt>
      <trkpt lat="48.5035" lon="1.93852">
        <ele>156</ele>
        <time>2022-05-15T11:14:11+02:00</time>
      </trkpt>
      <trkpt lat="48.50309" lon="1.9382">
        <ele>156</ele>
        <time>2022-05-15T11:14:48+02:00</time>
      </trkpt>
      <trkpt lat="48.50267" lon="1.93791">
        <ele>155</ele>
        <time>2022-05-15T11:15:24+02:00</time>
      </trkpt>
      <trkpt lat="48.50228" lon="1.93761">
        <ele>154</ele>
        <time>2022-05-15T11:16:01+02:00</time>
      </trkpt>
      <trkpt lat="48.50187" lon="1.93729">
        <ele>154</ele>
        <time>2022-05-15T11:16:38+02:00</time>
      </trkpt>
      <trkpt lat="48.50145" lon="1.93701">
        <ele>155</ele>
        <time>2022-05-15T11:17:15+02:00</time>
      </trkpt>
      <trkpt lat="48.50102" lon="1.93671">
        <ele>155</ele>
        <time>2022-05-15T11:17:53+02:00</time>
      </trkpt>
      <trkpt lat="48.5006" lon="1.93645">
        <ele>155</ele>
        <time>2022-05-15T11:18:30+02:00</time>
      </trkpt>
      <trkpt lat="48.50018" lon="1.93622">
        <ele>156</ele>
        <time>2022-05-15T11:19:07+02:00</time>
      </trkpt>
      <trkpt lat="48.49975" lon="1.936">
        <ele>156</ele>
        <time>2022-05-15T11:19:44+02:00</time>
      </trkpt>
      <trkpt lat="48.4993" lon="1.93584">
        <ele>156</ele>
        <time>2022-05-15T11:20:21+02:00</time>
      </trkpt>
      <trkpt lat="48.49888" lon="1.93559">
        <ele>157</ele>
        <time>2022-05-15T11:21:00+02:00</time>
      </trkpt>
      <trkpt lat="48.49845" lon="1.93538">
        <ele>157</ele>
        <time>2022-05-15T11:21:38+02:00</time>
      </trkpt>
      <trkpt lat="48.49802" lon="1.93515">
        <ele>157</ele>
        <time>2022-05-15T11:22:14+02:00</time>
      </trkpt>
      <trkpt lat="48.4976" lon="1.93491">
        <ele>156</ele>
        <time>2022-05-15T11:22:52+02:00</time>
      </trkpt>
      <trkpt lat="48.49717" lon="1.9347">
        <ele>156</ele>
        <time>2022-05-15T11:23:29+02:00</time>
      </trkpt>
      <trkpt lat="48.49674" lon="1.93448">
        <ele>156</ele>
        <time>2022-05-15T11:24:08+02:00</time>
      </trkpt>
      <trkpt lat="48.49632" lon="1.93427">
        <ele>156</ele>
        <time>2022-05-15T11:24:47+02:00</time>
      </trkpt>
      <trkpt lat="48.49588" lon="1.93409">
        <ele>157</ele>
        <time>2022-05-15T11:25:26+02:00</time>
      </trkpt>
      <trkpt lat="48.49545" lon="1.93386">
        <ele>157</ele>
        <time>2022-05-15T11:26:05+02:00</time>
      </trkpt>
      <trkpt lat="48.49501" lon="1.93368">
        <ele>156</ele>
        <time>2022-05-15T11:26:44+02:00</time>
      </trkpt>
      <trkpt lat="48.49455" lon="1.93357">
        <ele>156</ele>
        <time>2022-05-15T11:27:20+02:00</time>
      </trkpt>
      <trkpt lat="48.49411" lon="1.93343">
        <ele>156</ele>
        <time>2022-05-15T11:28:00+02:00</time>
      </trkpt>
      <trkpt lat="48.49367" lon="1.93332">
        <ele>155</ele>
        <time>2022-05-15T11:28:34+02:00</time>
      </trkpt>
      <trkpt lat="48.49322" lon="1.93322">
        <ele>155</ele>
        <time>2022-05-15T11:29:10+02:00</time>
      </trkpt>
      <trkpt lat="48.49276" lon="1.93316">
        <ele>155</ele>
        <time>2022-05-15T11:29:50+02:00</time>
      </trkpt>
      <trkpt lat="48.49233" lon="1.93302">
        <ele>155</ele>
        <time>2022-05-15T11:30:33+02:00</time>
      </trkpt>
      <trkpt lat="48.49227" lon="1.9323">
        <ele>155</ele>
        <time>2022-05-15T11:33:16+02:00</time>
      </trkpt>
      <trkpt lat="48.49225" lon="1.9316">
        <ele>154</ele>
        <time>2022-05-15T11:33:54+02:00</time>
      </trkpt>
      <trkpt lat="48.49223" lon="1.93093">
        <ele>154</ele>
        <time>2022-05-15T11:34:31+02:00</time>
      </trkpt>
      <trkpt lat="48.4922" lon="1.93024">
        <ele>154</ele>
        <time>2022-05-15T11:35:07+02:00</time>
      </trkpt>
      <trkpt lat="48.49218" lon="1.92954">
        <ele>154</ele>
        <time>2022-05-15T11:35:42+02:00</time>
      </trkpt>
      <trkpt lat="48.49215" lon="1.92885">
        <ele>155</ele>
        <time>2022-05-15T11:36:18+02:00</time>
      </trkpt>
      <trkpt lat="48.49212" lon="1.9282">
        <ele>156</ele>
        <time>2022-05-15T11:36:52+02:00</time>
      </trkpt>
      <trkpt lat="48.49208" lon="1.92752">
        <ele>158</ele>
        <time>2022-05-15T11:37:27+02:00</time>
      </trkpt>
      <trkpt lat="48.49201" lon="1.92682">
        <ele>158</ele>
        <time>2022-05-15T11:38:03+02:00</time>
      </trkpt>
      <trkpt lat="48.49175" lon="1.92624">
        <ele>155</ele>
        <time>2022-05-15T11:38:39+02:00</time>
      </trkpt>
      <trkpt lat="48.49133" lon="1.92594">
        <ele>153</ele>
        <time>2022-05-15T11:39:23+02:00</time>
      </trkpt>
      <trkpt lat="48.49065" lon="1.92588">
        <ele>152</ele>
        <time>2022-05-15T11:40:17+02:00</time>
      </trkpt>
      <trkpt lat="48.49005" lon="1.92587">
        <ele>151</ele>
        <time>2022-05-15T11:41:05+02:00</time>
      </trkpt>
      <trkpt lat="48.48961" lon="1.92558">
        <ele>151</ele>
        <time>2022-05-15T11:41:43+02:00</time>
      </trkpt>
      <trkpt lat="48.48926" lon="1.92514">
        <ele>152</ele>
        <time>2022-05-15T11:42:19+02:00</time>
      </trkpt>
      <trkpt lat="48.48882" lon="1.92492">
        <ele>153</ele>
        <time>2022-05-15T11:42:55+02:00</time>
      </trkpt>
      <trkpt lat="48.48839" lon="1.925">
        <ele>154</ele>
        <time>2022-05-15T11:43:30+02:00</time>
      </trkpt>
      <trkpt lat="48.48797" lon="1.92488">
        <ele>155</ele>
        <time>2022-05-15T11:44:03+02:00</time>
      </trkpt>
      <trkpt lat="48.4875" lon="1.9247">
        <ele>156</ele>
        <time>2022-05-15T11:44:36+02:00</time>
      </trkpt>
      <trkpt lat="48.48706" lon="1.92453">
        <ele>155</ele>
        <time>2022-05-15T11:45:09+02:00</time>
      </trkpt>
      <trkpt lat="48.48663" lon="1.92436">
        <ele>154</ele>
        <time>2022-05-15T11:45:42+02:00</time>
      </trkpt>
      <trkpt lat="48.48619" lon="1.92424">
        <ele>154</ele>
        <time>2022-05-15T11:46:44+02:00</time>
      </trkpt>
      <trkpt lat="48.48574" lon="1.92402">
        <ele>154</ele>
        <time>2022-05-15T11:47:20+02:00</time>
      </trkpt>
      <trkpt lat="48.48533" lon="1.92383">
        <ele>155</ele>
        <time>2022-05-15T11:47:56+02:00</time>
      </trkpt>
      <trkpt lat="48.48489" lon="1.92359">
        <ele>155</ele>
        <time>2022-05-15T11:48:32+02:00</time>
      </trkpt>
      <trkpt lat="48.48447" lon="1.92337">
        <ele>154</ele>
        <time>2022-05-15T11:49:08+02:00</time>
      </trkpt>
      <trkpt lat="48.48403" lon="1.9231">
        <ele>153</ele>
        <time>2022-05-15T11:49:43+02:00</time>
      </trkpt>
      <trkpt lat="48.48362" lon="1.92287">
        <ele>153</ele>
        <time>2022-05-15T11:50:19+02:00</time>
      </trkpt>
      <trkpt lat="48.48317" lon="1.92265">
        <ele>153</ele>
        <time>2022-05-15T11:50:58+02:00</time>
      </trkpt>
      <trkpt lat="48.48278" lon="1.92236">
        <ele>153</ele>
        <time>2022-05-15T11:51:34+02:00</time>
      </trkpt>
      <trkpt lat="48.48235" lon="1.92209">
        <ele>153</ele>
        <time>2022-05-15T11:52:13+02:00</time>
      </trkpt>
      <trkpt lat="48.48193" lon="1.92185">
        <ele>153</ele>
        <time>2022-05-15T11:52:48+02:00</time>
      </trkpt>
      <trkpt lat="48.48151" lon="1.92156">
        <ele>153</ele>
        <time>2022-05-15T11:53:25+02:00</time>
      </trkpt>
      <trkpt lat="48.48111" lon="1.92129">
        <ele>152</ele>
        <time>2022-05-15T11:54:01+02:00</time>
      </trkpt>
      <trkpt lat="48.48068" lon="1.92105">
        <ele>152</ele>
        <time>2022-05-15T11:54:37+02:00</time>
      </trkpt>
      <trkpt lat="48.48025" lon="1.92076">
        <ele>153</ele>
        <time>2022-05-15T11:55:13+02:00</time>
      </trkpt>
      <trkpt lat="48.47982" lon="1.9205">
        <ele>154</ele>
        <time>2022-05-15T11:55:49+02:00</time>
      </trkpt>
      <trkpt lat="48.47943" lon="1.92023">
        <ele>154</ele>
        <time>2022-05-15T11:56:25+02:00</time>
      </trkpt>
      <trkpt lat="48.47902" lon="1.91997">
        <ele>154</ele>
        <time>2022-05-15T11:57:02+02:00</time>
      </trkpt>
      <trkpt lat="48.47861" lon="1.91971">
        <ele>154</ele>
        <time>2022-05-15T11:57:38+02:00</time>
      </trkpt>
      <trkpt lat="48.47817" lon="1.91945">
        <ele>154</ele>
        <time>2022-05-15T11:58:15+02:00</time>
      </trkpt>
      <trkpt lat="48.47773" lon="1.9192">
        <ele>154</ele>
        <time>2022-05-15T11:58:53+02:00</time>
      </trkpt>
      <trkpt lat="48.47731" lon="1.91891">
        <ele>154</ele>
        <time>2022-05-15T11:59:29+02:00</time>
      </trkpt>
      <trkpt lat="48.47689" lon="1.91859">
        <ele>155</ele>
        <time>2022-05-15T12:00:06+02:00</time>
      </trkpt>
      <trkpt lat="48.47704" lon="1.91812">
        <ele>155</ele>
        <time>2022-05-15T12:00:51+02:00</time>
      </trkpt>
      <trkpt lat="48.47741" lon="1.91778">
        <ele>156</ele>
        <time>2022-05-15T12:01:30+02:00</time>
      </trkpt>
      <trkpt lat="48.47779" lon="1.9174">
        <ele>155</ele>
        <time>2022-05-15T12:02:14+02:00</time>
      </trkpt>
      <trkpt lat="48.47818" lon="1.91703">
        <ele>153</ele>
        <time>2022-05-15T12:02:55+02:00</time>
      </trkpt>
      <trkpt lat="48.47856" lon="1.91663">
        <ele>152</ele>
        <time>2022-05-15T12:03:30+02:00</time>
      </trkpt>
      <trkpt lat="48.47895" lon="1.91628">
        <ele>152</ele>
        <time>2022-05-15T12:04:04+02:00</time>
      </trkpt>
      <trkpt lat="48.47931" lon="1.91593">
        <ele>151</ele>
        <time>2022-05-15T12:04:39+02:00</time>
      </trkpt>
      <trkpt lat="48.4797" lon="1.91557">
        <ele>151</ele>
        <time>2022-05-15T12:05:15+02:00</time>
      </trkpt>
      <trkpt lat="48.48009" lon="1.91516">
        <ele>152</ele>
        <time>2022-05-15T12:05:53+02:00</time>
      </trkpt>
      <trkpt lat="48.48042" lon="1.91469">
        <ele>152</ele>
        <time>2022-05-15T12:06:31+02:00</time>
      </trkpt>
      <trkpt lat="48.48064" lon="1.91414">
        <ele>153</ele>
        <time>2022-05-15T12:07:08+02:00</time>
      </trkpt>
      <trkpt lat="48.48081" lon="1.9135">
        <ele>152</ele>
        <time>2022-05-15T12:07:44+02:00</time>
      </trkpt>
      <trkpt lat="48.48094" lon="1.91287">
        <ele>153</ele>
        <time>2022-05-15T12:08:31+02:00</time>
      </trkpt>
      <trkpt lat="48.48106" lon="1.91222">
        <ele>153</ele>
        <time>2022-05-15T12:09:53+02:00</time>
      </trkpt>
      <trkpt lat="48.48118" lon="1.91161">
        <ele>153</ele>
        <time>2022-05-15T12:10:38+02:00</time>
      </trkpt>
      <trkpt lat="48.48133" lon="1.91095">
        <ele>154</ele>
        <time>2022-05-15T12:11:41+02:00</time>
      </trkpt>
      <trkpt lat="48.48145" lon="1.9103">
        <ele>154</ele>
        <time>2022-05-15T12:13:14+02:00</time>
      </trkpt>
      <trkpt lat="48.48159" lon="1.90965">
        <ele>153</ele>
        <time>2022-05-15T12:13:53+02:00</time>
      </trkpt>
      <trkpt lat="48.48175" lon="1.909">
        <ele>154</ele>
        <time>2022-05-15T12:14:35+02:00</time>
      </trkpt>
      <trkpt lat="48.48188" lon="1.90834">
        <ele>155</ele>
        <time>2022-05-15T12:15:16+02:00</time>
      </trkpt>
      <trkpt lat="48.48209" lon="1.90772">
        <ele>155</ele>
        <time>2022-05-15T12:16:00+02:00</time>
      </trkpt>
      <trkpt lat="48.4823" lon="1.9071">
        <ele>156</ele>
        <time>2022-05-15T12:16:39+02:00</time>
      </trkpt>
      <trkpt lat="48.48252" lon="1.9065">
        <ele>157</ele>
        <time>2022-05-15T12:17:16+02:00</time>
      </trkpt>
      <trkpt lat="48.48275" lon="1.90594">
        <ele>156</ele>
        <time>2022-05-15T12:17:52+02:00</time>
      </trkpt>
      <trkpt lat="48.48301" lon="1.90538">
        <ele>157</ele>
        <time>2022-05-15T12:18:26+02:00</time>
      </trkpt>
      <trkpt lat="48.48324" lon="1.90484">
        <ele>158</ele>
        <time>2022-05-15T12:19:25+02:00</time>
      </trkpt>
      <trkpt lat="48.48357" lon="1.9044">
        <ele>158</ele>
        <time>2022-05-15T12:20:02+02:00</time>
      </trkpt>
      <trkpt lat="48.4838" lon="1.90388">
        <ele>159</ele>
        <time>2022-05-15T12:20:40+02:00</time>
      </trkpt>
      <trkpt lat="48.4838" lon="1.90322">
        <ele>159</ele>
        <time>2022-05-15T12:21:18+02:00</time>
      </trkpt>
      <trkpt lat="48.48413" lon="1.90265">
        <ele>159</ele>
        <time>2022-05-15T12:21:58+02:00</time>
      </trkpt>
      <trkpt lat="48.48429" lon="1.90203">
        <ele>158</ele>
        <time>2022-05-15T12:22:34+02:00</time>
      </trkpt>
      <trkpt lat="48.48434" lon="1.90128">
        <ele>157</ele>
        <time>2022-05-15T12:23:15+02:00</time>
      </trkpt>
      <trkpt lat="48.4845" lon="1.9006">
        <ele>156</ele>
        <time>2022-05-15T12:23:52+02:00</time>
      </trkpt>
      <trkpt lat="48.48464" lon="1.89995">
        <ele>156</ele>
        <time>2022-05-15T12:24:27+02:00</time>
      </trkpt>
      <trkpt lat="48.48474" lon="1.89933">
        <ele>156</ele>
        <time>2022-05-15T12:25:18+02:00</time>
      </trkpt>
      <trkpt lat="48.48492" lon="1.89869">
        <ele>156</ele>
        <time>2022-05-15T12:25:54+02:00</time>
      </trkpt>
      <trkpt lat="48.48494" lon="1.89804">
        <ele>156</ele>
        <time>2022-05-15T12:26:39+02:00</time>
      </trkpt>
      <trkpt lat="48.48489" lon="1.89743">
        <ele>157</ele>
        <time>2022-05-15T12:27:15+02:00</time>
      </trkpt>
      <trkpt lat="48.48485" lon="1.89679">
        <ele>157</ele>
        <time>2022-05-15T12:27:50+02:00</time>
      </trkpt>
      <trkpt lat="48.4848" lon="1.89615">
        <ele>157</ele>
        <time>2022-05-15T12:28:25+02:00</time>
      </trkpt>
      <trkpt lat="48.48471" lon="1.8955">
        <ele>157</ele>
        <time>2022-05-15T12:29:00+02:00</time>
      </trkpt>
      <trkpt lat="48.48464" lon="1.89486">
        <ele>157</ele>
        <time>2022-05-15T12:29:37+02:00</time>
      </trkpt>
      <trkpt lat="48.48456" lon="1.8942">
        <ele>157</ele>
        <time>2022-05-15T12:30:12+02:00</time>
      </trkpt>
      <trkpt lat="48.48448" lon="1.89359">
        <ele>157</ele>
        <time>2022-05-15T12:30:47+02:00</time>
      </trkpt>
      <trkpt lat="48.48442" lon="1.89291">
        <ele>157</ele>
        <time>2022-05-15T12:31:24+02:00</time>
      </trkpt>
      <trkpt lat="48.48438" lon="1.89223">
        <ele>157</ele>
        <time>2022-05-15T12:32:04+02:00</time>
      </trkpt>
      <trkpt lat="48.48431" lon="1.89154">
        <ele>158</ele>
        <time>2022-05-15T12:32:43+02:00</time>
      </trkpt>
      <trkpt lat="48.48423" lon="1.89087">
        <ele>158</ele>
        <time>2022-05-15T12:33:21+02:00</time>
      </trkpt>
      <trkpt lat="48.48415" lon="1.89022">
        <ele>158</ele>
        <time>2022-05-15T12:33:58+02:00</time>
      </trkpt>
      <trkpt lat="48.48406" lon="1.88951">
        <ele>158</ele>
        <time>2022-05-15T12:34:36+02:00</time>
      </trkpt>
      <trkpt lat="48.48403" lon="1.88879">
        <ele>158</ele>
        <time>2022-05-15T12:35:13+02:00</time>
      </trkpt>
      <trkpt lat="48.48404" lon="1.88811">
        <ele>158</ele>
        <time>2022-05-15T12:35:50+02:00</time>
      </trkpt>
      <trkpt lat="48.48394" lon="1.88751">
        <ele>158</ele>
        <time>2022-05-15T12:36:27+02:00</time>
      </trkpt>
      <trkpt lat="48.48381" lon="1.88685">
        <ele>158</ele>
        <time>2022-05-15T12:37:16+02:00</time>
      </trkpt>
      <trkpt lat="48.48364" lon="1.88622">
        <ele>157</ele>
        <time>2022-05-15T12:37:52+02:00</time>
      </trkpt>
      <trkpt lat="48.48349" lon="1.88558">
        <ele>156</ele>
        <time>2022-05-15T12:38:28+02:00</time>
      </trkpt>
      <trkpt lat="48.48335" lon="1.88493">
        <ele>156</ele>
        <time>2022-05-15T12:39:05+02:00</time>
      </trkpt>
      <trkpt lat="48.48321" lon="1.88429">
        <ele>156</ele>
        <time>2022-05-15T12:39:42+02:00</time>
      </trkpt>
      <trkpt lat="48.48305" lon="1.88364">
        <ele>157</ele>
        <time>2022-05-15T12:40:19+02:00</time>
      </trkpt>
      <trkpt lat="48.48292" lon="1.883">
        <ele>157</ele>
        <time>2022-05-15T12:40:54+02:00</time>
      </trkpt>
      <trkpt lat="48.48285" lon="1.88232">
        <ele>157</ele>
        <time>2022-05-15T12:41:32+02:00</time>
      </trkpt>
      <trkpt lat="48.48259" lon="1.88191">
        <ele>157</ele>
        <time>2022-05-15T12:42:48+02:00</time>
      </trkpt>
      <trkpt lat="48.48256" lon="1.88155">
        <ele>156</ele>
        <time>2022-05-15T13:28:42+02:00</time>
      </trkpt>
      <trkpt lat="48.48246" lon="1.88221">
        <ele>157</ele>
        <time>2022-05-15T13:29:31+02:00</time>
      </trkpt>
      <trkpt lat="48.4825" lon="1.88197">
        <ele>157</ele>
        <time>2022-05-15T13:31:20+02:00</time>
      </trkpt>
      <trkpt lat="48.48243" lon="1.88127">
        <ele>156</ele>
        <time>2022-05-15T13:32:53+02:00</time>
      </trkpt>
      <trkpt lat="48.48271" lon="1.88089">
        <ele>156</ele>
        <time>2022-05-15T13:33:31+02:00</time>
      </trkpt>
      <trkpt lat="48.48311" lon="1.8806">
        <ele>156</ele>
        <time>2022-05-15T13:34:08+02:00</time>
      </trkpt>
      <trkpt lat="48.48352" lon="1.88024">
        <ele>157</ele>
        <time>2022-05-15T13:34:46+02:00</time>
      </trkpt>
      <trkpt lat="48.48343" lon="1.8795">
        <ele>157</ele>
        <time>2022-05-15T13:35:22+02:00</time>
      </trkpt>
      <trkpt lat="48.48328" lon="1.87882">
        <ele>157</ele>
        <time>2022-05-15T13:35:58+02:00</time>
      </trkpt>
      <trkpt lat="48.48314" lon="1.87816">
        <ele>157</ele>
        <time>2022-05-15T13:36:34+02:00</time>
      </trkpt>
      <trkpt lat="48.48342" lon="1.87794">
        <ele>157</ele>
        <time>2022-05-15T13:37:09+02:00</time>
      </trkpt>
      <trkpt lat="48.48386" lon="1.8778">
        <ele>158</ele>
        <time>2022-05-15T13:37:46+02:00</time>
      </trkpt>
      <trkpt lat="48.48437" lon="1.87753">
        <ele>158</ele>
        <time>2022-05-15T13:38:34+02:00</time>
      </trkpt>
      <trkpt lat="48.48484" lon="1.87727">
        <ele>157</ele>
        <time>2022-05-15T13:39:19+02:00</time>
      </trkpt>
      <trkpt lat="48.48528" lon="1.87704">
        <ele>157</ele>
        <time>2022-05-15T13:40:19+02:00</time>
      </trkpt>
      <trkpt lat="48.4857" lon="1.87671">
        <ele>157</ele>
        <time>2022-05-15T13:40:58+02:00</time>
      </trkpt>
      <trkpt lat="48.48612" lon="1.87638">
        <ele>157</ele>
        <time>2022-05-15T13:41:34+02:00</time>
      </trkpt>
      <trkpt lat="48.48645" lon="1.87603">
        <ele>156</ele>
        <time>2022-05-15T13:42:16+02:00</time>
      </trkpt>
      <trkpt lat="48.4861" lon="1.8763">
        <ele>157</ele>
        <time>2022-05-15T13:43:02+02:00</time>
      </trkpt>
      <trkpt lat="48.48569" lon="1.8766">
        <ele>157</ele>
        <time>2022-05-15T13:43:42+02:00</time>
      </trkpt>
      <trkpt lat="48.48518" lon="1.87669">
        <ele>157</ele>
        <time>2022-05-15T13:44:23+02:00</time>
      </trkpt>
      <trkpt lat="48.48494" lon="1.87608">
        <ele>156</ele>
        <time>2022-05-15T13:44:58+02:00</time>
      </trkpt>
      <trkpt lat="48.48471" lon="1.87548">
        <ele>157</ele>
        <time>2022-05-15T13:45:34+02:00</time>
      </trkpt>
      <trkpt lat="48.48446" lon="1.87492">
        <ele>158</ele>
        <time>2022-05-15T13:46:08+02:00</time>
      </trkpt>
      <trkpt lat="48.48419" lon="1.87438">
        <ele>157</ele>
        <time>2022-05-15T13:46:44+02:00</time>
      </trkpt>
      <trkpt lat="48.48401" lon="1.87382">
        <ele>156</ele>
        <time>2022-05-15T13:47:21+02:00</time>
      </trkpt>
      <trkpt lat="48.48384" lon="1.87315">
        <ele>157</ele>
        <time>2022-05-15T13:47:58+02:00</time>
      </trkpt>
      <trkpt lat="48.48366" lon="1.8725">
        <ele>157</ele>
        <time>2022-05-15T13:48:36+02:00</time>
      </trkpt>
      <trkpt lat="48.48343" lon="1.87181">
        <ele>156</ele>
        <time>2022-05-15T13:49:16+02:00</time>
      </trkpt>
      <trkpt lat="48.48318" lon="1.87119">
        <ele>156</ele>
        <time>2022-05-15T13:49:53+02:00</time>
      </trkpt>
      <trkpt lat="48.48294" lon="1.87058">
        <ele>155</ele>
        <time>2022-05-15T13:50:32+02:00</time>
      </trkpt>
      <trkpt lat="48.48268" lon="1.86995">
        <ele>156</ele>
        <time>2022-05-15T13:51:07+02:00</time>
      </trkpt>
      <trkpt lat="48.48246" lon="1.86935">
        <ele>156</ele>
        <time>2022-05-15T13:51:42+02:00</time>
      </trkpt>
      <trkpt lat="48.48226" lon="1.8687">
        <ele>156</ele>
        <time>2022-05-15T13:52:17+02:00</time>
      </trkpt>
      <trkpt lat="48.48211" lon="1.86804">
        <ele>156</ele>
        <time>2022-05-15T13:52:52+02:00</time>
      </trkpt>
      <trkpt lat="48.48196" lon="1.86739">
        <ele>156</ele>
        <time>2022-05-15T13:53:30+02:00</time>
      </trkpt>
      <trkpt lat="48.48181" lon="1.86672">
        <ele>156</ele>
        <time>2022-05-15T13:54:06+02:00</time>
      </trkpt>
      <trkpt lat="48.48164" lon="1.86607">
        <ele>156</ele>
        <time>2022-05-15T13:54:42+02:00</time>
      </trkpt>
      <trkpt lat="48.48149" lon="1.86541">
        <ele>156</ele>
        <time>2022-05-15T13:55:21+02:00</time>
      </trkpt>
      <trkpt lat="48.48133" lon="1.86467">
        <ele>157</ele>
        <time>2022-05-15T13:56:00+02:00</time>
      </trkpt>
      <trkpt lat="48.48116" lon="1.86403">
        <ele>158</ele>
        <time>2022-05-15T13:56:37+02:00</time>
      </trkpt>
      <trkpt lat="48.48101" lon="1.8634">
        <ele>158</ele>
        <time>2022-05-15T13:57:12+02:00</time>
      </trkpt>
      <trkpt lat="48.48087" lon="1.86275">
        <ele>157</ele>
        <time>2022-05-15T13:57:48+02:00</time>
      </trkpt>
      <trkpt lat="48.48072" lon="1.86207">
        <ele>156</ele>
        <time>2022-05-15T13:58:23+02:00</time>
      </trkpt>
      <trkpt lat="48.48055" lon="1.86143">
        <ele>157</ele>
        <time>2022-05-15T13:59:03+02:00</time>
      </trkpt>
      <trkpt lat="48.48037" lon="1.86077">
        <ele>158</ele>
        <time>2022-05-15T13:59:40+02:00</time>
      </trkpt>
      <trkpt lat="48.48027" lon="1.86009">
        <ele>158</ele>
        <time>2022-05-15T14:00:16+02:00</time>
      </trkpt>
      <trkpt lat="48.48021" lon="1.85941">
        <ele>158</ele>
        <time>2022-05-15T14:00:52+02:00</time>
      </trkpt>
      <trkpt lat="48.48018" lon="1.85874">
        <ele>158</ele>
        <time>2022-05-15T14:01:26+02:00</time>
      </trkpt>
      <trkpt lat="48.48012" lon="1.85806">
        <ele>158</ele>
        <time>2022-05-15T14:02:01+02:00</time>
      </trkpt>
      <trkpt lat="48.4801" lon="1.85739">
        <ele>158</ele>
        <time>2022-05-15T14:02:36+02:00</time>
      </trkpt>
      <trkpt lat="48.48001" lon="1.85673">
        <ele>158</ele>
        <time>2022-05-15T14:03:12+02:00</time>
      </trkpt>
      <trkpt lat="48.47996" lon="1.85609">
        <ele>158</ele>
        <time>2022-05-15T14:03:49+02:00</time>
      </trkpt>
      <trkpt lat="48.47986" lon="1.85541">
        <ele>158</ele>
        <time>2022-05-15T14:04:23+02:00</time>
      </trkpt>
      <trkpt lat="48.4798" lon="1.85473">
        <ele>157</ele>
        <time>2022-05-15T14:04:58+02:00</time>
      </trkpt>
      <trkpt lat="48.47972" lon="1.8541">
        <ele>157</ele>
        <time>2022-05-15T14:05:31+02:00</time>
      </trkpt>
      <trkpt lat="48.47967" lon="1.85349">
        <ele>157</ele>
        <time>2022-05-15T14:06:07+02:00</time>
      </trkpt>
      <trkpt lat="48.47957" lon="1.8528">
        <ele>158</ele>
        <time>2022-05-15T14:06:42+02:00</time>
      </trkpt>
      <trkpt lat="48.47941" lon="1.85214">
        <ele>159</ele>
        <time>2022-05-15T14:07:17+02:00</time>
      </trkpt>
      <trkpt lat="48.47931" lon="1.8515">
        <ele>160</ele>
        <time>2022-05-15T14:07:52+02:00</time>
      </trkpt>
      <trkpt lat="48.47916" lon="1.85079">
        <ele>158</ele>
        <time>2022-05-15T14:08:28+02:00</time>
      </trkpt>
      <trkpt lat="48.47888" lon="1.85051">
        <ele>158</ele>
        <time>2022-05-15T14:09:12+02:00</time>
      </trkpt>
      <trkpt lat="48.47848" lon="1.85105">
        <ele>159</ele>
        <time>2022-05-15T14:10:00+02:00</time>
      </trkpt>
      <trkpt lat="48.478" lon="1.85152">
        <ele>159</ele>
        <time>2022-05-15T14:10:44+02:00</time>
      </trkpt>
      <trkpt lat="48.47756" lon="1.85164">
        <ele>159</ele>
        <time>2022-05-15T14:12:15+02:00</time>
      </trkpt>
      <trkpt lat="48.47735" lon="1.85093">
        <ele>157</ele>
        <time>2022-05-15T14:12:47+02:00</time>
      </trkpt>
      <trkpt lat="48.47774" lon="1.85043">
        <ele>157</ele>
        <time>2022-05-15T14:13:18+02:00</time>
      </trkpt>
      <trkpt lat="48.47814" lon="1.85014">
        <ele>158</ele>
        <time>2022-05-15T14:13:48+02:00</time>
      </trkpt>
      <trkpt lat="48.47854" lon="1.84989">
        <ele>157</ele>
        <time>2022-05-15T14:14:20+02:00</time>
      </trkpt>
      <trkpt lat="48.47897" lon="1.84966">
        <ele>157</ele>
        <time>2022-05-15T14:14:52+02:00</time>
      </trkpt>
      <trkpt lat="48.47917" lon="1.8494">
        <ele>157</ele>
        <time>2022-05-15T14:18:17+02:00</time>
      </trkpt>
      <trkpt lat="48.47918" lon="1.8487">
        <ele>157</ele>
        <time>2022-05-15T14:18:54+02:00</time>
      </trkpt>
      <trkpt lat="48.47914" lon="1.84804">
        <ele>156</ele>
        <time>2022-05-15T14:19:30+02:00</time>
      </trkpt>
      <trkpt lat="48.47908" lon="1.84737">
        <ele>156</ele>
        <time>2022-05-15T14:20:04+02:00</time>
      </trkpt>
      <trkpt lat="48.47904" lon="1.84672">
        <ele>156</ele>
        <time>2022-05-15T14:20:38+02:00</time>
      </trkpt>
      <trkpt lat="48.47908" lon="1.84607">
        <ele>156</ele>
        <time>2022-05-15T14:21:10+02:00</time>
      </trkpt>
      <trkpt lat="48.47917" lon="1.84547">
        <ele>156</ele>
        <time>2022-05-15T14:21:42+02:00</time>
      </trkpt>
      <trkpt lat="48.47925" lon="1.84481">
        <ele>157</ele>
        <time>2022-05-15T14:22:16+02:00</time>
      </trkpt>
      <trkpt lat="48.47933" lon="1.84415">
        <ele>157</ele>
        <time>2022-05-15T14:22:50+02:00</time>
      </trkpt>
      <trkpt lat="48.47945" lon="1.84351">
        <ele>157</ele>
        <time>2022-05-15T14:23:23+02:00</time>
      </trkpt>
      <trkpt lat="48.47965" lon="1.84291">
        <ele>156</ele>
        <time>2022-05-15T14:23:56+02:00</time>
      </trkpt>
      <trkpt lat="48.47991" lon="1.84239">
        <ele>156</ele>
        <time>2022-05-15T14:24:29+02:00</time>
      </trkpt>
      <trkpt lat="48.48022" lon="1.84189">
        <ele>156</ele>
        <time>2022-05-15T14:25:03+02:00</time>
      </trkpt>
      <trkpt lat="48.48054" lon="1.8414">
        <ele>155</ele>
        <time>2022-05-15T14:25:37+02:00</time>
      </trkpt>
      <trkpt lat="48.48085" lon="1.84092">
        <ele>155</ele>
        <time>2022-05-15T14:26:12+02:00</time>
      </trkpt>
      <trkpt lat="48.48118" lon="1.84038">
        <ele>155</ele>
        <time>2022-05-15T14:27:30+02:00</time>
      </trkpt>
      <trkpt lat="48.48137" lon="1.83981">
        <ele>155</ele>
        <time>2022-05-15T14:28:07+02:00</time>
      </trkpt>
      <trkpt lat="48.48146" lon="1.83917">
        <ele>157</ele>
        <time>2022-05-15T14:30:30+02:00</time>
      </trkpt>
      <trkpt lat="48.48148" lon="1.83853">
        <ele>156</ele>
        <time>2022-05-15T14:31:13+02:00</time>
      </trkpt>
      <trkpt lat="48.48136" lon="1.83789">
        <ele>157</ele>
        <time>2022-05-15T14:31:49+02:00</time>
      </trkpt>
      <trkpt lat="48.48107" lon="1.83735">
        <ele>158</ele>
        <time>2022-05-15T14:32:25+02:00</time>
      </trkpt>
      <trkpt lat="48.48058" lon="1.83703">
        <ele>159</ele>
        <time>2022-05-15T14:33:02+02:00</time>
      </trkpt>
      <trkpt lat="48.48009" lon="1.83696">
        <ele>159</ele>
        <time>2022-05-15T14:33:39+02:00</time>
      </trkpt>
      <trkpt lat="48.47961" lon="1.83695">
        <ele>158</ele>
        <time>2022-05-15T14:34:16+02:00</time>
      </trkpt>
      <trkpt lat="48.47916" lon="1.83695">
        <ele>157</ele>
        <time>2022-05-15T14:34:52+02:00</time>
      </trkpt>
      <trkpt lat="48.47873" lon="1.83692">
        <ele>157</ele>
        <time>2022-05-15T14:35:25+02:00</time>
      </trkpt>
      <trkpt lat="48.47829" lon="1.83679">
        <ele>157</ele>
        <time>2022-05-15T14:36:00+02:00</time>
      </trkpt>
      <trkpt lat="48.47782" lon="1.83674">
        <ele>156</ele>
        <time>2022-05-15T14:36:35+02:00</time>
      </trkpt>
      <trkpt lat="48.47729" lon="1.83668">
        <ele>155</ele>
        <time>2022-05-15T14:37:18+02:00</time>
      </trkpt>
      <trkpt lat="48.47704" lon="1.83609">
        <ele>156</ele>
        <time>2022-05-15T14:37:57+02:00</time>
      </trkpt>
      <trkpt lat="48.4766" lon="1.83613">
        <ele>155</ele>
        <time>2022-05-15T14:38:39+02:00</time>
      </trkpt>
      <trkpt lat="48.47613" lon="1.8362">
        <ele>156</ele>
        <time>2022-05-15T14:39:14+02:00</time>
      </trkpt>
      <trkpt lat="48.47567" lon="1.83623">
        <ele>157</ele>
        <time>2022-05-15T14:39:51+02:00</time>
      </trkpt>
      <trkpt lat="48.47522" lon="1.83611">
        <ele>158</ele>
        <time>2022-05-15T14:40:27+02:00</time>
      </trkpt>
      <trkpt lat="48.47475" lon="1.83607">
        <ele>158</ele>
        <time>2022-05-15T14:41:04+02:00</time>
      </trkpt>
      <trkpt lat="48.47429" lon="1.83603">
        <ele>158</ele>
        <time>2022-05-15T14:41:42+02:00</time>
      </trkpt>
      <trkpt lat="48.47383" lon="1.83601">
        <ele>157</ele>
        <time>2022-05-15T14:42:18+02:00</time>
      </trkpt>
      <trkpt lat="48.47339" lon="1.83596">
        <ele>157</ele>
        <time>2022-05-15T14:42:58+02:00</time>
      </trkpt>
      <trkpt lat="48.47295" lon="1.83594">
        <ele>157</ele>
        <time>2022-05-15T14:43:33+02:00</time>
      </trkpt>
      <trkpt lat="48.4726" lon="1.83562">
        <ele>157</ele>
        <time>2022-05-15T14:44:08+02:00</time>
      </trkpt>
      <trkpt lat="48.47242" lon="1.83501">
        <ele>155</ele>
        <time>2022-05-15T14:44:43+02:00</time>
      </trkpt>
      <trkpt lat="48.47222" lon="1.83437">
        <ele>155</ele>
        <time>2022-05-15T14:45:24+02:00</time>
      </trkpt>
      <trkpt lat="48.47198" lon="1.83381">
        <ele>154</ele>
        <time>2022-05-15T14:46:01+02:00</time>
      </trkpt>
      <trkpt lat="48.47177" lon="1.83317">
        <ele>154</ele>
        <time>2022-05-15T14:46:42+02:00</time>
      </trkpt>
      <trkpt lat="48.47156" lon="1.83259">
        <ele>155</ele>
        <time>2022-05-15T14:47:25+02:00</time>
      </trkpt>
      <trkpt lat="48.47137" lon="1.83199">
        <ele>154</ele>
        <time>2022-05-15T14:48:01+02:00</time>
      </trkpt>
      <trkpt lat="48.47115" lon="1.83143">
        <ele>153</ele>
        <time>2022-05-15T14:48:37+02:00</time>
      </trkpt>
      <trkpt lat="48.47107" lon="1.83069">
        <ele>152</ele>
        <time>2022-05-15T14:49:10+02:00</time>
      </trkpt>
      <trkpt lat="48.47096" lon="1.83">
        <ele>151</ele>
        <time>2022-05-15T14:49:50+02:00</time>
      </trkpt>
      <trkpt lat="48.4708" lon="1.82931">
        <ele>152</ele>
        <time>2022-05-15T14:50:26+02:00</time>
      </trkpt>
      <trkpt lat="48.47065" lon="1.82869">
        <ele>153</ele>
        <time>2022-05-15T14:51:01+02:00</time>
      </trkpt>
      <trkpt lat="48.47051" lon="1.82799">
        <ele>153</ele>
        <time>2022-05-15T14:51:41+02:00</time>
      </trkpt>
      <trkpt lat="48.47036" lon="1.82731">
        <ele>153</ele>
        <time>2022-05-15T14:52:20+02:00</time>
      </trkpt>
      <trkpt lat="48.47021" lon="1.82664">
        <ele>153</ele>
        <time>2022-05-15T14:52:57+02:00</time>
      </trkpt>
      <trkpt lat="48.47008" lon="1.82575">
        <ele>152</ele>
        <time>2022-05-15T14:53:42+02:00</time>
      </trkpt>
      <trkpt lat="48.4696" lon="1.8255">
        <ele>152</ele>
        <time>2022-05-15T14:54:18+02:00</time>
      </trkpt>
      <trkpt lat="48.46917" lon="1.82532">
        <ele>153</ele>
        <time>2022-05-15T14:54:53+02:00</time>
      </trkpt>
      <trkpt lat="48.46875" lon="1.82517">
        <ele>153</ele>
        <time>2022-05-15T14:55:43+02:00</time>
      </trkpt>
      <trkpt lat="48.46832" lon="1.82502">
        <ele>153</ele>
        <time>2022-05-15T14:56:21+02:00</time>
      </trkpt>
      <trkpt lat="48.46781" lon="1.82486">
        <ele>153</ele>
        <time>2022-05-15T14:59:12+02:00</time>
      </trkpt>
      <trkpt lat="48.46755" lon="1.82444">
        <ele>157</ele>
        <time>2022-05-15T14:59:55+02:00</time>
      </trkpt>
      <trkpt lat="48.46733" lon="1.82346">
        <ele>161</ele>
        <time>2022-05-15T15:00:56+02:00</time>
      </trkpt>
      <trkpt lat="48.46737" lon="1.8222">
        <ele>162</ele>
        <time>2022-05-15T15:02:11+02:00</time>
      </trkpt>
      <trkpt lat="48.46739" lon="1.82124">
        <ele>163</ele>
        <time>2022-05-15T15:03:02+02:00</time>
      </trkpt>
      <trkpt lat="48.46738" lon="1.82023">
        <ele>162</ele>
        <time>2022-05-15T15:03:56+02:00</time>
      </trkpt>
      <trkpt lat="48.46738" lon="1.81939">
        <ele>161</ele>
        <time>2022-05-15T15:04:41+02:00</time>
      </trkpt>
      <trkpt lat="48.46743" lon="1.8185">
        <ele>161</ele>
        <time>2022-05-15T15:05:31+02:00</time>
      </trkpt>
      <trkpt lat="48.46749" lon="1.81738">
        <ele>156</ele>
        <time>2022-05-15T15:06:42+02:00</time>
      </trkpt>
      <trkpt lat="48.46704" lon="1.81693">
        <ele>156</ele>
        <time>2022-05-15T15:07:31+02:00</time>
      </trkpt>
      <trkpt lat="48.4665" lon="1.81675">
        <ele>156</ele>
        <time>2022-05-15T15:08:21+02:00</time>
      </trkpt>
      <trkpt lat="48.4659" lon="1.81671">
        <ele>156</ele>
        <time>2022-05-15T15:09:08+02:00</time>
      </trkpt>
      <trkpt lat="48.46518" lon="1.81699">
        <ele>156</ele>
        <time>2022-05-15T15:10:25+02:00</time>
      </trkpt>
      <trkpt lat="48.46435" lon="1.81717">
        <ele>153</ele>
        <time>2022-05-15T15:11:35+02:00</time>
      </trkpt>
      <trkpt lat="48.4639" lon="1.8168">
        <ele>151</ele>
        <time>2022-05-15T15:12:17+02:00</time>
      </trkpt>
      <trkpt lat="48.46371" lon="1.81613">
        <ele>148</ele>
        <time>2022-05-15T15:12:55+02:00</time>
      </trkpt>
      <trkpt lat="48.46349" lon="1.81553">
        <ele>148</ele>
        <time>2022-05-15T15:13:31+02:00</time>
      </trkpt>
      <trkpt lat="48.4636" lon="1.81473">
        <ele>150</ele>
        <time>2022-05-15T15:14:21+02:00</time>
      </trkpt>
      <trkpt lat="48.4639" lon="1.81393">
        <ele>154</ele>
        <time>2022-05-15T15:15:37+02:00</time>
      </trkpt>
      <trkpt lat="48.46422" lon="1.8132">
        <ele>156</ele>
        <time>2022-05-15T15:16:25+02:00</time>
      </trkpt>
      <trkpt lat="48.46466" lon="1.81218">
        <ele>157</ele>
        <time>2022-05-15T15:17:43+02:00</time>
      </trkpt>
      <trkpt lat="48.46502" lon="1.81136">
        <ele>157</ele>
        <time>2022-05-15T15:18:39+02:00</time>
      </trkpt>
      <trkpt lat="48.46532" lon="1.81056">
        <ele>152</ele>
        <time>2022-05-15T15:19:30+02:00</time>
      </trkpt>
      <trkpt lat="48.4654" lon="1.80966">
        <ele>147</ele>
        <time>2022-05-15T15:20:24+02:00</time>
      </trkpt>
      <trkpt lat="48.46517" lon="1.80906">
        <ele>145</ele>
        <time>2022-05-15T15:21:07+02:00</time>
      </trkpt>
      <trkpt lat="48.46563" lon="1.80848">
        <ele>142</ele>
        <time>2022-05-15T15:21:59+02:00</time>
      </trkpt>
      <trkpt lat="48.46584" lon="1.80778">
        <ele>141</ele>
        <time>2022-05-15T15:22:35+02:00</time>
      </trkpt>
      <trkpt lat="48.46593" lon="1.80717">
        <ele>142</ele>
        <time>2022-05-15T15:23:16+02:00</time>
      </trkpt>
      <trkpt lat="48.46593" lon="1.80649">
        <ele>143</ele>
        <time>2022-05-15T15:23:57+02:00</time>
      </trkpt>
      <trkpt lat="48.46596" lon="1.80572">
        <ele>145</ele>
        <time>2022-05-15T15:24:37+02:00</time>
      </trkpt>
      <trkpt lat="48.46595" lon="1.80507">
        <ele>146</ele>
        <time>2022-05-15T15:25:22+02:00</time>
      </trkpt>
      <trkpt lat="48.46595" lon="1.80441">
        <ele>147</ele>
        <time>2022-05-15T15:26:15+02:00</time>
      </trkpt>
      <trkpt lat="48.466" lon="1.80367">
        <ele>148</ele>
        <time>2022-05-15T15:26:53+02:00</time>
      </trkpt>
      <trkpt lat="48.46602" lon="1.80297">
        <ele>149</ele>
        <time>2022-05-15T15:27:33+02:00</time>
      </trkpt>
      <trkpt lat="48.46605" lon="1.8023">
        <ele>151</ele>
        <time>2022-05-15T15:28:11+02:00</time>
      </trkpt>
      <trkpt lat="48.46604" lon="1.80165">
        <ele>152</ele>
        <time>2022-05-15T15:29:06+02:00</time>
      </trkpt>
      <trkpt lat="48.4661" lon="1.80094">
        <ele>153</ele>
        <time>2022-05-15T15:29:45+02:00</time>
      </trkpt>
      <trkpt lat="48.46621" lon="1.80031">
        <ele>154</ele>
        <time>2022-05-15T15:30:25+02:00</time>
      </trkpt>
      <trkpt lat="48.46633" lon="1.79965">
        <ele>154</ele>
        <time>2022-05-15T15:31:04+02:00</time>
      </trkpt>
      <trkpt lat="48.46644" lon="1.799">
        <ele>155</ele>
        <time>2022-05-15T15:31:43+02:00</time>
      </trkpt>
      <trkpt lat="48.46656" lon="1.79833">
        <ele>155</ele>
        <time>2022-05-15T15:32:19+02:00</time>
      </trkpt>
      <trkpt lat="48.46646" lon="1.79785">
        <ele>155</ele>
        <time>2022-05-15T15:33:00+02:00</time>
      </trkpt>
      <trkpt lat="48.46603" lon="1.79759">
        <ele>154</ele>
        <time>2022-05-15T15:33:38+02:00</time>
      </trkpt>
      <trkpt lat="48.46563" lon="1.79729">
        <ele>154</ele>
        <time>2022-05-15T15:34:14+02:00</time>
      </trkpt>
      <trkpt lat="48.46522" lon="1.79696">
        <ele>153</ele>
        <time>2022-05-15T15:34:51+02:00</time>
      </trkpt>
      <trkpt lat="48.46482" lon="1.7967">
        <ele>153</ele>
        <time>2022-05-15T15:35:35+02:00</time>
      </trkpt>
      <trkpt lat="48.46443" lon="1.7964">
        <ele>152</ele>
        <time>2022-05-15T15:36:12+02:00</time>
      </trkpt>
      <trkpt lat="48.46402" lon="1.7961">
        <ele>152</ele>
        <time>2022-05-15T15:36:48+02:00</time>
      </trkpt>
      <trkpt lat="48.46363" lon="1.79581">
        <ele>151</ele>
        <time>2022-05-15T15:37:23+02:00</time>
      </trkpt>
      <trkpt lat="48.46322" lon="1.79551">
        <ele>152</ele>
        <time>2022-05-15T15:37:59+02:00</time>
      </trkpt>
      <trkpt lat="48.46281" lon="1.79521">
        <ele>152</ele>
        <time>2022-05-15T15:38:34+02:00</time>
      </trkpt>
      <trkpt lat="48.46243" lon="1.79495">
        <ele>151</ele>
        <time>2022-05-15T15:39:16+02:00</time>
      </trkpt>
      <trkpt lat="48.46221" lon="1.79467">
        <ele>151</ele>
        <time>2022-05-15T15:43:26+02:00</time>
      </trkpt>
      <trkpt lat="48.46184" lon="1.79426">
        <ele>151</ele>
        <time>2022-05-15T15:44:04+02:00</time>
      </trkpt>
      <trkpt lat="48.46149" lon="1.79388">
        <ele>152</ele>
        <time>2022-05-15T15:44:39+02:00</time>
      </trkpt>
      <trkpt lat="48.46111" lon="1.79348">
        <ele>152</ele>
        <time>2022-05-15T15:45:19+02:00</time>
      </trkpt>
      <trkpt lat="48.46076" lon="1.79305">
        <ele>152</ele>
        <time>2022-05-15T15:45:55+02:00</time>
      </trkpt>
      <trkpt lat="48.4604" lon="1.79268">
        <ele>153</ele>
        <time>2022-05-15T15:46:32+02:00</time>
      </trkpt>
      <trkpt lat="48.45997" lon="1.7921">
        <ele>152</ele>
        <time>2022-05-15T15:47:18+02:00</time>
      </trkpt>
      <trkpt lat="48.45983" lon="1.79146">
        <ele>150</ele>
        <time>2022-05-15T15:47:59+02:00</time>
      </trkpt>
      <trkpt lat="48.46023" lon="1.79117">
        <ele>149</ele>
        <time>2022-05-15T15:48:42+02:00</time>
      </trkpt>
      <trkpt lat="48.46067" lon="1.79092">
        <ele>148</ele>
        <time>2022-05-15T15:49:19+02:00</time>
      </trkpt>
      <trkpt lat="48.46111" lon="1.79068">
        <ele>148</ele>
        <time>2022-05-15T15:49:59+02:00</time>
      </trkpt>
      <trkpt lat="48.46102" lon="1.79021">
        <ele>149</ele>
        <time>2022-05-15T15:50:43+02:00</time>
      </trkpt>
      <trkpt lat="48.46077" lon="1.7896">
        <ele>149</ele>
        <time>2022-05-15T15:51:24+02:00</time>
      </trkpt>
      <trkpt lat="48.46076" lon="1.78892">
        <ele>150</ele>
        <time>2022-05-15T15:52:21+02:00</time>
      </trkpt>
      <trkpt lat="48.46071" lon="1.78821">
        <ele>150</ele>
        <time>2022-05-15T15:53:19+02:00</time>
      </trkpt>
      <trkpt lat="48.46042" lon="1.78704">
        <ele>141</ele>
        <time>2022-05-15T15:54:29+02:00</time>
      </trkpt>
      <trkpt lat="48.46041" lon="1.78622">
        <ele>135</ele>
        <time>2022-05-15T15:56:01+02:00</time>
      </trkpt>
      <trkpt lat="48.46032" lon="1.7852">
        <ele>131</ele>
        <time>2022-05-15T15:56:56+02:00</time>
      </trkpt>
      <trkpt lat="48.46026" lon="1.78415">
        <ele>139</ele>
        <time>2022-05-15T16:02:55+02:00</time>
      </trkpt>
      <trkpt lat="48.46048" lon="1.78332">
        <ele>142</ele>
        <time>2022-05-15T16:03:44+02:00</time>
      </trkpt>
      <trkpt lat="48.46071" lon="1.78267">
        <ele>143</ele>
        <time>2022-05-15T16:04:20+02:00</time>
      </trkpt>
      <trkpt lat="48.46094" lon="1.78208">
        <ele>142</ele>
        <time>2022-05-15T16:04:55+02:00</time>
      </trkpt>
      <trkpt lat="48.46119" lon="1.78152">
        <ele>141</ele>
        <time>2022-05-15T16:05:29+02:00</time>
      </trkpt>
      <trkpt lat="48.46139" lon="1.7809">
        <ele>142</ele>
        <time>2022-05-15T16:06:28+02:00</time>
      </trkpt>
      <trkpt lat="48.46159" lon="1.78026">
        <ele>144</ele>
        <time>2022-05-15T16:07:06+02:00</time>
      </trkpt>
      <trkpt lat="48.46183" lon="1.77967">
        <ele>145</ele>
        <time>2022-05-15T16:07:43+02:00</time>
      </trkpt>
      <trkpt lat="48.46201" lon="1.77905">
        <ele>146</ele>
        <time>2022-05-15T16:08:18+02:00</time>
      </trkpt>
      <trkpt lat="48.46221" lon="1.77842">
        <ele>148</ele>
        <time>2022-05-15T16:08:57+02:00</time>
      </trkpt>
      <trkpt lat="48.46219" lon="1.77768">
        <ele>148</ele>
        <time>2022-05-15T16:09:51+02:00</time>
      </trkpt>
      <trkpt lat="48.46216" lon="1.77697">
        <ele>148</ele>
        <time>2022-05-15T16:10:32+02:00</time>
      </trkpt>
      <trkpt lat="48.46254" lon="1.77658">
        <ele>147</ele>
        <time>2022-05-15T16:11:21+02:00</time>
      </trkpt>
      <trkpt lat="48.46298" lon="1.77677">
        <ele>146</ele>
        <time>2022-05-15T16:12:10+02:00</time>
      </trkpt>
      <trkpt lat="48.46343" lon="1.7768">
        <ele>144</ele>
        <time>2022-05-15T16:13:00+02:00</time>
      </trkpt>
      <trkpt lat="48.46348" lon="1.77729">
        <ele>143</ele>
        <time>2022-05-15T16:14:13+02:00</time>
      </trkpt>
      <trkpt lat="48.46328" lon="1.77748">
        <ele>145</ele>
        <time>2022-05-15T16:16:28+02:00</time>
      </trkpt>
      <trkpt lat="48.46328" lon="1.77748">
        <ele>145</ele>
        <time>2022-05-16T14:30:06+02:00</time>
      </trkpt>
    </trkseg>
  </trk>
</gpx>